Estación Meteorológica Peña el Pijo (Robertgarden) [ 05/25/24 09:43:05 CEST ]

Fecha Hora Presion(HPa) Temp (°C) Humedad % Rocio (°C) Viento ( m/s) Direccion Lluvia 1Hora(mm) Lluvia 24H(mm) LLuvia Total(mm)
2008-Apr-21 01:05:17 1007.100 4.9 83 2.2 0.6 E   8.28 78.71
2008-Apr-21 02:05:13 1007.300 4.6 83 1.9 1.7 ESE   8.28 78.71
2008-Apr-21 03:05:14 1007.200 4.8 84 2.3 1.0 SE   8.28 78.71
2008-Apr-21 04:05:19 1006.800 4.2 86 2.0 2.0 SSE 0.51 8.28 79.23
2008-Apr-21 05:05:11 1007.300 4.5 86 2.3 3.3 SW   7.25 79.23
2008-Apr-21 06:05:12 1007.400 5.1 80 1.9 0.9 SE   5.18 79.23
2008-Apr-21 07:05:14 1007.600 5.1 81 2.1 3.7 W   4.14 79.23
2008-Apr-21 08:05:16 1008.900 5.3 81 2.3       4.14 79.23
2008-Apr-21 09:05:16 1010.000 5.6 80 2.4       4.14 79.23
2008-Apr-21 10:05:17 1010.500 6.3 80 3.1       4.14 79.23
2008-Apr-21 11:05:33 1011.600 6.9 77 3.1 0.8 S   4.14 79.23
2008-Apr-21 12:05:19 1012.300 12.9 69 7.4 1.5 SE 0.51 4.66 79.75
2008-Apr-21 13:05:22 1012.800 13.9 57 5.5     0.51 5.18 80.27
2008-Apr-21 14:05:13 1013.000 13.9 59 6.0       5.18 80.27
2008-Apr-21 15:05:14 1013.300 12.4 56 3.8       5.18 80.27
2008-Apr-21 16:05:29 1013.800 12.4 56 3.8 2.5 S   5.18 80.27
2008-Apr-21 17:05:21 1013.700 18.9 40 5.0       5.18 80.27
2008-Apr-21 18:05:33 1013.800 19.9 36 4.3 1.4 E   4.66 80.27
2008-Apr-21 19:05:24 1014.300 18.6 39 4.3 0.7 ESE   2.07 80.27
2008-Apr-21 20:05:14 1014.700 9.4 59 1.8 1.4 ENE   1.55 80.27
2008-Apr-21 21:05:12 1016.000 6.7 75 2.6       1.55 80.27
2008-Apr-21 22:05:13 1016.400 4.9 83 2.2       1.55 80.27
2008-Apr-21 23:05:13 1017.100 6.1 81 3.1 1.4 SE   1.55 80.27

Temperatura Máxima:19°    Temperatura Mínima:
Presión Máxima:1017.100 Hpa    Presión Mínima:1006.800 Hpa


Volver